createdAt,value
2022-10-11T00:02:05.135Z,9.47
2022-10-11T00:04:31.761Z,9.49
2022-10-11T00:06:58.500Z,9.49
2022-10-11T00:09:25.231Z,9.51
2022-10-11T00:11:55.809Z,9.51
2022-10-11T00:14:24.068Z,9.55
2022-10-11T00:16:50.991Z,9.55
2022-10-11T00:19:18.015Z,9.47
2022-10-11T00:21:45.192Z,9.38
2022-10-11T00:24:13.109Z,9.38
2022-10-11T00:26:44.384Z,9.39
2022-10-11T00:29:13.485Z,9.39
2022-10-11T00:31:40.578Z,9.40
2022-10-11T00:34:07.996Z,9.41
2022-10-11T00:36:34.765Z,9.49
2022-10-11T00:39:01.991Z,9.41
2022-10-11T00:41:28.764Z,9.42
2022-10-11T00:44:19.186Z,9.40
2022-10-11T00:47:08.925Z,9.35
2022-10-11T00:49:42.199Z,9.44
2022-10-11T00:52:15.077Z,9.48
2022-10-11T00:54:44.528Z,9.42
2022-10-11T00:57:17.238Z,9.38
2022-10-11T00:59:47.061Z,9.34
2022-10-11T01:02:14.807Z,9.33
2022-10-11T01:04:42.729Z,9.37
2022-10-11T01:07:10.482Z,9.36
2022-10-11T01:09:37.156Z,9.40
2022-10-11T01:12:12.287Z,9.40
2022-10-11T01:15:16.626Z,9.32
2022-10-11T01:18:02.066Z,9.28
2022-10-11T01:20:43.662Z,9.28
2022-10-11T01:23:27.286Z,9.27
2022-10-11T01:26:12.645Z,9.37
2022-10-11T01:29:10.028Z,9.30
2022-10-11T01:31:58.642Z,9.24
2022-10-11T01:34:43.750Z,9.30
2022-10-11T01:37:10.600Z,9.31
2022-10-11T01:39:41.854Z,9.29
2022-10-11T01:42:12.380Z,9.17
2022-10-11T01:44:42.541Z,9.15
2022-10-11T01:47:09.227Z,9.08
2022-10-11T01:49:35.957Z,9.04
2022-10-11T01:52:05.757Z,8.96
2022-10-11T01:55:08.233Z,8.95
2022-10-11T01:58:00.876Z,8.83
2022-10-11T02:00:40.175Z,8.87
2022-10-11T02:03:29.314Z,8.86
2022-10-11T02:06:06.123Z,8.90
2022-10-11T02:08:55.035Z,8.86
2022-10-11T02:11:31.370Z,8.81
2022-10-11T02:14:06.335Z,8.81
2022-10-11T02:16:42.676Z,8.81
2022-10-11T02:19:13.313Z,8.77
2022-10-11T02:21:44.444Z,8.72
2022-10-11T02:24:16.530Z,8.69
2022-10-11T02:26:47.743Z,8.68
2022-10-11T02:29:16.655Z,8.66
2022-10-11T02:31:45.198Z,8.71
2022-10-11T02:34:23.283Z,8.67
2022-10-11T02:37:12.157Z,8.67
2022-10-11T02:39:52.493Z,8.59
2022-10-11T02:42:26.924Z,8.51
2022-10-11T02:45:01.409Z,8.49
2022-10-11T02:47:32.104Z,8.56
2022-10-11T02:50:00.212Z,8.72
2022-10-11T02:52:26.914Z,8.76
2022-10-11T02:54:53.643Z,8.76
2022-10-11T02:57:20.362Z,8.78
2022-10-11T02:59:47.129Z,8.74
2022-10-11T03:02:14.367Z,8.74
2022-10-11T03:04:41.080Z,8.72
2022-10-11T03:07:07.870Z,8.84
2022-10-11T03:09:35.664Z,8.84
2022-10-11T03:12:02.520Z,8.72
2022-10-11T03:14:29.132Z,8.67
2022-10-11T03:17:00.769Z,8.68
2022-10-11T03:19:34.651Z,8.70
2022-10-11T03:22:01.587Z,8.70
2022-10-11T03:24:28.332Z,8.67
2022-10-11T03:26:54.970Z,8.67
2022-10-11T03:29:21.708Z,8.64
2022-10-11T03:31:48.392Z,8.55
2022-10-11T03:34:15.210Z,8.44
2022-10-11T03:36:41.896Z,8.32
2022-10-11T03:39:08.931Z,8.28
2022-10-11T03:41:35.680Z,8.31
2022-10-11T03:44:02.348Z,8.38
2022-10-11T03:46:29.111Z,8.34
2022-10-11T03:48:56.012Z,8.45
2022-10-11T03:51:22.666Z,8.49
2022-10-11T03:53:49.301Z,8.47
2022-10-11T03:56:16.347Z,8.45
2022-10-11T03:58:43.451Z,8.46
2022-10-11T04:01:11.364Z,8.42
2022-10-11T04:03:38.041Z,8.41
2022-10-11T04:06:05.336Z,8.39
2022-10-11T04:08:32.298Z,8.38
2022-10-11T04:10:58.992Z,8.24
2022-10-11T04:13:25.837Z,8.32
2022-10-11T04:15:52.610Z,8.44
2022-10-11T04:18:19.285Z,8.61
2022-10-11T04:20:45.918Z,8.54
2022-10-11T04:23:12.596Z,8.58
2022-10-11T04:25:39.874Z,8.65
2022-10-11T04:28:08.965Z,8.73
2022-10-11T04:30:35.764Z,8.63
2022-10-11T04:33:02.417Z,8.74
2022-10-11T04:35:29.098Z,8.72
2022-10-11T04:37:55.875Z,8.72
2022-10-11T04:40:22.776Z,8.74
2022-10-11T04:42:50.656Z,8.67
2022-10-11T04:45:17.445Z,8.69
2022-10-11T04:47:44.103Z,8.71
2022-10-11T04:50:10.770Z,8.70
2022-10-11T04:52:37.458Z,8.72
2022-10-11T04:55:04.629Z,8.75
2022-10-11T04:57:31.359Z,8.75
2022-10-11T04:59:58.023Z,8.69
2022-10-11T05:02:24.778Z,8.71
2022-10-11T05:04:51.452Z,8.65
2022-10-11T05:07:18.286Z,8.60
2022-10-11T05:09:45.090Z,8.61
2022-10-11T05:12:11.897Z,8.69
2022-10-11T05:14:38.801Z,8.70
2022-10-11T05:17:05.600Z,8.81
2022-10-11T05:19:32.271Z,8.71
2022-10-11T05:21:58.936Z,8.72
2022-10-11T05:24:25.728Z,8.77
2022-10-11T05:26:52.442Z,8.77
2022-10-11T05:29:19.132Z,8.79
2022-10-11T05:31:45.823Z,8.88
2022-10-11T05:34:12.480Z,8.88
2022-10-11T05:36:39.126Z,8.90
2022-10-11T05:39:06.141Z,8.97
2022-10-11T05:41:32.775Z,8.92
2022-10-11T05:43:59.474Z,8.97
2022-10-11T05:46:26.122Z,9.14
2022-10-11T05:48:52.818Z,9.17
2022-10-11T05:51:19.507Z,9.17
2022-10-11T05:53:46.222Z,9.39
2022-10-11T05:56:21.591Z,9.38
2022-10-11T05:58:48.527Z,9.38
2022-10-11T06:01:24.685Z,9.34
2022-10-11T06:03:52.171Z,9.30
2022-10-11T06:06:19.773Z,9.19
2022-10-11T06:08:48.143Z,9.15
2022-10-11T06:11:17.853Z,9.11
2022-10-11T06:13:44.674Z,9.16
2022-10-11T06:16:12.194Z,9.08
2022-10-11T06:18:39.232Z,9.07
2022-10-11T06:21:06.488Z,9.23
2022-10-11T06:23:33.240Z,9.58
2022-10-11T06:26:09.342Z,9.82
2022-10-11T06:28:37.199Z,9.81
2022-10-11T06:31:05.441Z,9.83
2022-10-11T06:33:32.663Z,10.07
2022-10-11T06:36:07.323Z,10.28
2022-10-11T06:38:34.813Z,10.43
2022-10-11T06:41:10.714Z,10.44
2022-10-11T06:43:37.532Z,10.55
2022-10-11T06:46:04.530Z,10.70
2022-10-11T06:48:34.285Z,10.83
2022-10-11T06:51:01.885Z,10.92
2022-10-11T06:53:28.621Z,11.04
2022-10-11T06:56:02.663Z,11.12
2022-10-11T06:58:29.847Z,11.20
2022-10-11T07:01:00.808Z,11.28
2022-10-11T07:03:28.240Z,11.41
2022-10-11T07:06:02.447Z,11.53
2022-10-11T07:08:29.744Z,11.57
2022-10-11T07:11:05.263Z,11.63
2022-10-11T07:13:32.193Z,11.68
2022-10-11T07:16:03.876Z,11.71
2022-10-11T07:18:31.787Z,11.84
2022-10-11T07:20:58.936Z,12.05
2022-10-11T07:23:25.878Z,12.16
2022-10-11T07:25:54.921Z,12.27
2022-10-11T07:28:22.769Z,12.30
2022-10-11T07:30:50.036Z,12.35
2022-10-11T07:33:16.776Z,12.42
2022-10-11T07:35:48.246Z,12.52
2022-10-11T07:38:16.617Z,12.62
2022-10-11T07:40:46.698Z,12.69
2022-10-11T07:43:13.709Z,12.76
2022-10-11T07:45:41.792Z,12.85
2022-10-11T07:48:09.334Z,12.97
2022-10-11T07:50:36.020Z,13.02
2022-10-11T07:53:03.112Z,13.18
2022-10-11T07:55:31.634Z,13.24
2022-10-11T07:57:58.288Z,13.36
2022-10-11T08:00:31.138Z,13.42
2022-10-11T08:02:58.163Z,13.53
2022-10-11T08:05:24.835Z,13.62
2022-10-11T08:07:51.672Z,13.51
2022-10-11T08:10:18.869Z,13.61
2022-10-11T08:12:48.054Z,13.75
2022-10-11T08:15:14.844Z,13.81
2022-10-11T08:17:41.499Z,13.86
2022-10-11T08:20:08.538Z,13.91
2022-10-11T08:22:35.224Z,13.98
2022-10-11T08:25:01.959Z,14.04
2022-10-11T08:27:28.582Z,14.15
2022-10-11T08:29:55.342Z,14.24
2022-10-11T08:32:21.942Z,14.27
2022-10-11T08:34:48.629Z,14.35
2022-10-11T08:37:15.793Z,14.41
2022-10-11T08:39:42.614Z,14.43
2022-10-11T08:42:32.338Z,14.50
2022-10-11T08:45:11.531Z,14.50
2022-10-11T08:47:41.181Z,14.59
2022-10-11T08:50:14.733Z,14.69
2022-10-11T08:53:03.592Z,14.79
2022-10-11T08:55:33.218Z,14.91
2022-10-11T08:57:59.896Z,15.00
2022-10-11T09:00:31.501Z,15.03
2022-10-11T09:03:08.533Z,15.09
2022-10-11T09:05:53.669Z,15.16
2022-10-11T09:08:39.691Z,15.20
2022-10-11T09:11:12.741Z,15.32
2022-10-11T09:14:23.628Z,15.28
2022-10-11T09:17:08.704Z,15.45
2022-10-11T09:19:51.414Z,15.57
2022-10-11T09:22:59.722Z,15.69
2022-10-11T09:25:39.599Z,15.79
2022-10-11T09:28:35.462Z,15.82
2022-10-11T09:31:02.283Z,15.94
2022-10-11T09:33:32.803Z,16.06
2022-10-11T09:36:01.277Z,16.01
2022-10-11T09:38:49.525Z,15.83
2022-10-11T09:41:53.757Z,16.00
2022-10-11T09:44:24.056Z,16.15
2022-10-11T09:46:52.642Z,16.19
2022-10-11T09:49:21.629Z,16.28
2022-10-11T09:51:54.284Z,16.39
2022-10-11T09:54:36.480Z,16.50
2022-10-11T09:57:03.285Z,16.55
2022-10-11T09:59:35.187Z,16.57
2022-10-11T10:02:14.430Z,16.68
2022-10-11T10:05:00.980Z,16.80
2022-10-11T10:07:30.351Z,16.88
2022-10-11T10:09:57.479Z,16.97
2022-10-11T10:12:28.639Z,17.10
2022-10-11T10:15:19.139Z,17.20
2022-10-11T10:17:53.270Z,17.29
2022-10-11T10:20:27.378Z,17.42
2022-10-11T10:22:54.485Z,17.38
2022-10-11T10:25:37.444Z,17.47
2022-10-11T10:28:17.882Z,17.63
2022-10-11T10:30:56.461Z,17.75
2022-10-11T10:33:25.973Z,17.70
2022-10-11T10:36:02.650Z,17.72
2022-10-11T10:38:35.670Z,17.88
2022-10-11T10:41:09.152Z,17.92
2022-10-11T10:43:39.208Z,18.07
2022-10-11T10:46:21.401Z,18.28
2022-10-11T10:52:05.277Z,18.46
2022-10-11T10:54:42.775Z,18.56
2022-10-11T10:57:27.670Z,18.70
2022-10-11T11:00:12.552Z,18.69
2022-10-11T11:03:00.885Z,18.71
2022-10-11T11:05:51.168Z,18.72
2022-10-11T11:08:27.064Z,18.76
2022-10-11T11:11:30.622Z,18.78
2022-10-11T11:14:24.702Z,18.83
2022-10-11T11:17:06.208Z,18.91
2022-10-11T11:19:59.212Z,18.90
2022-10-11T11:22:47.878Z,18.89
2022-10-11T11:25:44.986Z,18.90
2022-10-11T11:28:48.917Z,18.93
2022-10-11T11:31:46.487Z,19.00
2022-10-11T11:34:27.360Z,18.94
2022-10-11T11:37:11.424Z,18.98
2022-10-11T11:40:10.939Z,18.97
2022-10-11T11:42:43.985Z,18.98
2022-10-11T11:45:17.686Z,18.98
2022-10-11T11:47:52.072Z,19.02
2022-10-11T11:50:22.789Z,19.07
2022-10-11T11:52:58.029Z,19.10
2022-10-11T11:55:33.494Z,19.08
2022-10-11T11:58:08.151Z,19.10
2022-10-11T12:01:19.641Z,19.03
2022-10-11T12:03:53.592Z,18.91
2022-10-11T12:06:24.593Z,18.90
2022-10-11T12:09:05.044Z,18.88
2022-10-11T12:11:42.414Z,18.97
2022-10-11T12:14:35.150Z,18.97
2022-10-11T12:17:10.397Z,18.93
2022-10-11T12:19:40.288Z,18.78
2022-10-11T12:22:37.909Z,18.71
2022-10-11T12:25:13.769Z,18.71
2022-10-11T12:27:44.519Z,18.70
2022-10-11T12:30:47.837Z,18.66
2022-10-11T12:33:22.518Z,18.81
2022-10-11T12:35:55.240Z,18.72
2022-10-11T12:38:35.777Z,18.70
2022-10-11T12:41:08.689Z,18.68
2022-10-11T12:43:49.022Z,18.71
2022-10-11T12:46:28.031Z,18.71
2022-10-11T12:49:15.425Z,18.77
2022-10-11T12:51:55.248Z,19.25
2022-10-11T12:54:27.290Z,19.27
2022-10-11T12:57:12.249Z,19.01
2022-10-11T12:59:45.451Z,19.35
2022-10-11T13:02:30.163Z,19.02
2022-10-11T13:05:22.347Z,18.74
2022-10-11T13:07:50.096Z,18.63
2022-10-11T13:10:22.860Z,18.54
2022-10-11T13:12:50.914Z,18.48
2022-10-11T13:15:21.349Z,18.42
2022-10-11T13:17:54.253Z,18.40
2022-10-11T13:20:26.538Z,18.31
2022-10-11T13:22:55.477Z,18.18
2022-10-11T13:25:28.398Z,18.22
2022-10-11T13:27:58.230Z,18.23
2022-10-11T13:30:27.028Z,18.19
2022-10-11T13:32:54.046Z,18.18
2022-10-11T13:35:28.798Z,18.17
2022-10-11T13:37:55.675Z,18.12
2022-10-11T13:40:23.706Z,18.13
2022-10-11T13:42:52.521Z,18.12
2022-10-11T13:45:23.056Z,18.12
2022-10-11T13:47:51.540Z,18.10
2022-10-11T13:50:34.481Z,18.12
2022-10-11T13:53:22.964Z,18.09
2022-10-11T13:55:56.471Z,18.14
2022-10-11T13:58:29.465Z,18.18
2022-10-11T14:00:59.483Z,18.15
2022-10-11T14:03:47.588Z,18.24
2022-10-11T14:06:14.652Z,18.32
2022-10-11T14:08:54.313Z,18.38
2022-10-11T14:11:37.848Z,18.33
2022-10-11T14:14:32.481Z,18.42
2022-10-11T14:17:25.118Z,18.50
2022-10-11T14:20:12.142Z,18.47
2022-10-11T14:22:39.140Z,18.50
2022-10-11T14:25:06.168Z,19.01
2022-10-11T14:27:33.034Z,20.14
2022-10-11T14:30:24.123Z,19.62
2022-10-11T14:32:49.167Z,19.07
2022-10-11T14:35:21.817Z,18.82
2022-10-11T14:37:49.231Z,18.71
2022-10-11T14:40:19.197Z,18.69
2022-10-11T14:42:46.004Z,18.59
2022-10-11T14:45:12.862Z,18.51
2022-10-11T14:47:42.928Z,18.39
2022-10-11T14:50:22.934Z,18.24
2022-10-11T14:52:49.634Z,18.17
2022-10-11T14:55:16.288Z,18.15
2022-10-11T14:57:42.963Z,18.10
2022-10-11T15:00:39.376Z,17.93
2022-10-11T15:03:07.443Z,17.78
2022-10-11T15:05:35.185Z,17.67
2022-10-11T15:08:03.906Z,17.61
2022-10-11T15:10:35.745Z,17.55
2022-10-11T15:13:03.562Z,17.48
2022-10-11T15:15:32.910Z,17.40
2022-10-11T15:18:00.266Z,17.38
2022-10-11T15:20:35.121Z,17.35
2022-10-11T15:23:02.039Z,17.34
2022-10-11T15:25:29.537Z,17.28
2022-10-11T15:27:56.971Z,17.13
2022-10-11T15:30:41.007Z,17.04
2022-10-11T15:33:09.159Z,17.04
2022-10-11T15:35:36.063Z,17.00
2022-10-11T15:38:02.804Z,16.97
2022-10-11T15:40:36.955Z,16.94
2022-10-11T15:43:04.641Z,16.83
2022-10-11T15:45:31.435Z,16.76
2022-10-11T15:47:58.457Z,16.65
2022-10-11T15:50:41.546Z,16.60
2022-10-11T15:53:14.708Z,16.52
2022-10-11T15:55:46.485Z,16.48
2022-10-11T15:58:25.439Z,16.42
2022-10-11T16:00:54.223Z,16.49
2022-10-11T16:03:23.268Z,16.44
2022-10-11T16:05:50.357Z,16.37
2022-10-11T16:08:17.393Z,16.32
2022-10-11T16:10:44.049Z,16.24
2022-10-11T16:13:11.238Z,16.13
2022-10-11T16:15:39.732Z,16.05
2022-10-11T16:18:07.733Z,15.98
2022-10-11T16:20:46.413Z,15.98
2022-10-11T16:23:14.137Z,15.88
2022-10-11T16:25:41.392Z,15.85
2022-10-11T16:28:09.901Z,15.81
2022-10-11T16:30:41.349Z,15.73
2022-10-11T16:33:08.126Z,15.67
2022-10-11T16:35:35.055Z,15.69
2022-10-11T16:38:01.845Z,15.65
2022-10-11T16:40:30.100Z,15.63
2022-10-11T16:42:56.851Z,15.55
2022-10-11T16:45:23.555Z,15.53
2022-10-11T16:47:50.347Z,15.47
2022-10-11T16:50:16.996Z,15.40
2022-10-11T16:52:43.662Z,15.34
2022-10-11T16:55:10.512Z,15.23
2022-10-11T16:57:37.866Z,15.19
2022-10-11T17:00:09.649Z,15.14
2022-10-11T17:02:36.718Z,15.10
2022-10-11T17:05:04.062Z,14.99
2022-10-11T17:07:31.769Z,14.97
2022-10-11T17:09:59.512Z,14.86
2022-10-11T17:12:26.324Z,14.84
2022-10-11T17:14:53.398Z,14.83
2022-10-11T17:17:21.234Z,14.82
2022-10-11T17:19:48.003Z,14.78
2022-10-11T17:22:17.571Z,14.78
2022-10-11T17:24:44.495Z,14.72
2022-10-11T17:27:11.240Z,14.73
2022-10-11T17:29:38.285Z,14.69
2022-10-11T17:32:05.242Z,14.67
2022-10-11T17:34:31.990Z,14.64
2022-10-11T17:36:58.761Z,14.65
2022-10-11T17:39:25.891Z,14.57
2022-10-11T17:41:54.144Z,14.59
2022-10-11T17:44:21.807Z,14.65
2022-10-11T17:46:48.572Z,14.49
2022-10-11T17:49:15.464Z,14.39
2022-10-11T17:51:43.610Z,14.27
2022-10-11T17:54:13.476Z,14.26
2022-10-11T17:56:41.113Z,14.28
2022-10-11T17:59:27.526Z,14.36
2022-10-11T18:01:54.724Z,14.45
2022-10-11T18:04:22.806Z,14.53
2022-10-11T18:06:52.122Z,14.69
2022-10-11T18:09:20.092Z,14.85
2022-10-11T18:11:47.830Z,15.00
2022-10-11T18:14:17.782Z,15.10
2022-10-11T18:16:45.523Z,15.12
2022-10-11T18:19:13.264Z,15.17
2022-10-11T18:21:40.449Z,15.20
2022-10-11T18:24:16.988Z,15.31
2022-10-11T18:26:45.253Z,15.35
2022-10-11T18:29:12.696Z,15.39
2022-10-11T18:31:39.794Z,15.43
2022-10-11T18:34:10.645Z,15.35
2022-10-11T18:36:38.125Z,15.42
2022-10-11T18:39:08.369Z,15.49
2022-10-11T18:41:35.756Z,15.46
2022-10-11T18:44:08.128Z,15.33
2022-10-11T18:46:35.849Z,15.23
2022-10-11T18:49:02.715Z,15.21
2022-10-11T18:51:34.786Z,15.15
2022-10-11T18:54:02.051Z,15.11
2022-10-11T18:56:30.594Z,15.13
2022-10-11T18:58:59.327Z,15.21
2022-10-11T19:01:32.179Z,15.12
2022-10-11T19:04:00.620Z,15.12
2022-10-11T19:06:36.601Z,15.17
2022-10-11T19:09:09.431Z,14.91
2022-10-11T19:11:36.836Z,14.86
2022-10-11T19:14:11.185Z,14.85
2022-10-11T19:16:41.235Z,14.76
2022-10-11T19:19:09.544Z,14.68
2022-10-11T19:21:36.359Z,14.63
2022-10-11T19:24:03.676Z,14.58
2022-10-11T19:26:33.557Z,14.53
2022-10-11T19:29:00.065Z,14.47
2022-10-11T19:31:27.315Z,14.35
2022-10-11T19:33:55.907Z,14.43
2022-10-11T19:36:22.823Z,14.40
2022-10-11T19:38:51.017Z,14.42
2022-10-11T19:41:19.860Z,14.43
2022-10-11T19:43:46.912Z,14.41
2022-10-11T19:46:32.388Z,14.27
2022-10-11T19:49:07.876Z,14.15
2022-10-11T19:51:35.189Z,14.06
2022-10-11T19:54:04.695Z,14.02
2022-10-11T19:56:33.121Z,14.05
2022-10-11T19:59:01.004Z,13.99
2022-10-11T20:01:30.367Z,13.89
2022-10-11T20:03:59.461Z,13.78
2022-10-11T20:06:28.098Z,13.80
2022-10-11T20:09:16.737Z,13.84
2022-10-11T20:11:42.487Z,13.85
2022-10-11T20:14:09.429Z,13.86
2022-10-11T20:16:36.348Z,14.02
2022-10-11T20:19:03.992Z,14.04
2022-10-11T20:21:31.209Z,14.07
2022-10-11T20:24:00.812Z,14.00
2022-10-11T20:26:28.630Z,13.96
2022-10-11T20:28:56.345Z,13.90
2022-10-11T20:31:28.990Z,13.91
2022-10-11T20:33:57.659Z,13.92
2022-10-11T20:36:27.963Z,13.95
2022-10-11T20:38:54.676Z,13.97
2022-10-11T20:41:24.232Z,13.95
2022-10-11T20:43:54.378Z,13.99
2022-10-11T20:46:23.836Z,14.10
2022-10-11T20:49:01.160Z,14.16
2022-10-11T20:51:29.640Z,14.18
2022-10-11T20:53:56.595Z,14.14
2022-10-11T20:56:23.559Z,14.13
2022-10-11T20:58:52.604Z,14.11
2022-10-11T21:01:21.934Z,14.11
2022-10-11T21:03:48.580Z,14.09
2022-10-11T21:06:15.287Z,14.05
2022-10-11T21:08:42.424Z,13.96
2022-10-11T21:11:10.155Z,13.87
2022-10-11T21:13:37.280Z,13.88
2022-10-11T21:16:11.198Z,13.87
2022-10-11T21:18:38.700Z,13.87
2022-10-11T21:21:10.716Z,13.88
2022-10-11T21:23:37.407Z,13.91
2022-10-11T21:26:06.331Z,13.95
2022-10-11T21:28:33.447Z,13.99
2022-10-11T21:31:11.439Z,13.99
2022-10-11T21:33:39.029Z,14.01
2022-10-11T21:36:07.372Z,14.01
2022-10-11T21:38:35.135Z,14.05
2022-10-11T21:41:06.455Z,13.98
2022-10-11T21:43:38.270Z,13.89
2022-10-11T21:46:19.870Z,13.80
2022-10-11T21:48:47.367Z,13.68
2022-10-11T21:51:17.230Z,13.64
2022-10-11T21:53:43.804Z,13.65
2022-10-11T21:56:10.490Z,13.63
2022-10-11T21:58:37.261Z,13.53
2022-10-11T22:01:04.311Z,13.50
2022-10-11T22:03:30.985Z,13.53
2022-10-11T22:05:57.653Z,13.49
2022-10-11T22:08:24.399Z,13.57
2022-10-11T22:10:56.336Z,13.49
2022-10-11T22:13:24.433Z,13.49
2022-10-11T22:15:51.358Z,13.47
2022-10-11T22:18:18.075Z,13.32
2022-10-11T22:20:44.946Z,13.14
2022-10-11T22:23:11.673Z,13.02
2022-10-11T22:25:39.512Z,13.09
2022-10-11T22:28:06.910Z,13.11
2022-10-11T22:30:34.019Z,13.02
2022-10-11T22:33:00.861Z,12.98
2022-10-11T22:35:27.533Z,13.03
2022-10-11T22:37:54.249Z,12.96
2022-10-11T22:40:21.283Z,12.80
2022-10-11T22:42:48.377Z,12.68
2022-10-11T22:45:15.135Z,12.63
2022-10-11T22:47:41.767Z,12.53
2022-10-11T22:50:08.859Z,12.50
2022-10-11T22:52:35.638Z,12.31
2022-10-11T22:55:02.319Z,12.25
2022-10-11T22:57:29.602Z,12.17
2022-10-11T22:59:56.739Z,12.17
2022-10-11T23:02:23.441Z,12.16
2022-10-11T23:04:50.089Z,12.14
2022-10-11T23:07:16.702Z,12.16
2022-10-11T23:09:43.346Z,12.10
2022-10-11T23:12:09.999Z,12.09
2022-10-11T23:14:36.765Z,11.98
2022-10-11T23:17:03.410Z,11.89
2022-10-11T23:19:30.053Z,11.82
2022-10-11T23:21:56.790Z,11.91
2022-10-11T23:24:23.544Z,11.77
2022-10-11T23:26:50.318Z,11.63
2022-10-11T23:29:17.020Z,11.68
2022-10-11T23:31:44.524Z,11.75
2022-10-11T23:34:11.178Z,11.77
2022-10-11T23:36:37.977Z,11.77
2022-10-11T23:39:04.824Z,11.60
2022-10-11T23:41:31.713Z,11.46
2022-10-11T23:43:58.730Z,11.55
2022-10-11T23:46:25.422Z,11.61
2022-10-11T23:48:52.134Z,11.62
2022-10-11T23:51:18.912Z,11.61
2022-10-11T23:53:45.588Z,11.46
2022-10-11T23:56:12.401Z,11.51
2022-10-11T23:58:39.522Z,11.54
